createdAt,value
2023-04-20T00:01:26.438Z,33.00
2023-04-20T00:04:15.522Z,40.80
2023-04-20T00:07:02.647Z,30.20
2023-04-20T00:09:49.598Z,42.60
2023-04-20T00:12:36.486Z,42.70
2023-04-20T00:15:23.581Z,44.40
2023-04-20T00:18:10.615Z,24.10
2023-04-20T00:20:58.149Z,40.70
2023-04-20T00:23:44.959Z,29.20
2023-04-20T00:26:31.838Z,28.70
2023-04-20T00:29:19.565Z,27.90
2023-04-20T00:32:06.726Z,38.00
2023-04-20T00:34:54.477Z,36.40
2023-04-20T00:37:41.471Z,29.10
2023-04-20T00:40:29.291Z,37.90
2023-04-20T00:43:16.911Z,38.00
2023-04-20T00:46:04.253Z,37.10
2023-04-20T00:48:54.336Z,36.40
2023-04-20T00:51:41.650Z,38.20
2023-04-20T00:54:29.172Z,36.00
2023-04-20T00:57:18.766Z,33.10
2023-04-20T01:00:07.425Z,27.90
2023-04-20T01:03:00.797Z,30.10
2023-04-20T01:05:48.330Z,27.30
2023-04-20T01:08:35.762Z,38.30
2023-04-20T01:11:25.284Z,36.10
2023-04-20T01:14:12.546Z,36.00
2023-04-20T01:16:59.942Z,38.90
2023-04-20T01:19:47.638Z,26.00
2023-04-20T01:22:42.856Z,22.60
2023-04-20T01:25:55.026Z,28.00
2023-04-20T01:28:57.834Z,27.00
2023-04-20T01:31:58.429Z,29.50
2023-04-20T01:35:34.493Z,36.60
2023-04-20T01:42:34.080Z,34.70
2023-04-20T01:52:38.629Z,25.10
2023-04-20T01:55:55.612Z,23.60
2023-04-20T01:59:17.675Z,31.30
2023-04-20T02:02:37.882Z,32.60
2023-04-20T02:09:30.628Z,32.40
2023-04-20T02:16:01.432Z,30.00
2023-04-20T02:18:48.226Z,22.00
2023-04-20T02:21:35.477Z,23.40
2023-04-20T02:24:23.622Z,24.10
2023-04-20T02:27:10.621Z,32.00
2023-04-20T02:29:59.934Z,34.20
2023-04-20T02:32:47.113Z,27.10
2023-04-20T02:35:36.342Z,35.10
2023-04-20T02:38:24.509Z,31.90
2023-04-20T02:41:12.018Z,32.00
2023-04-20T02:43:59.601Z,31.90
2023-04-20T02:46:47.878Z,26.00
2023-04-20T02:49:35.815Z,30.70
2023-04-20T02:52:23.344Z,32.50
2023-04-20T02:55:11.738Z,31.20
2023-04-20T02:58:00.055Z,32.50
2023-04-20T03:01:04.416Z,30.80
2023-04-20T03:03:53.047Z,30.10
2023-04-20T03:06:40.730Z,23.60
2023-04-20T03:09:30.148Z,23.40
2023-04-20T03:12:22.793Z,22.40
2023-04-20T03:15:31.434Z,28.70
2023-04-20T03:18:39.632Z,29.40
2023-04-20T03:21:29.033Z,30.50
2023-04-20T03:24:19.018Z,31.30
2023-04-20T03:27:08.696Z,30.90
2023-04-20T03:30:18.113Z,32.10
2023-04-20T03:33:09.416Z,29.80
2023-04-20T03:35:59.292Z,28.50
2023-04-20T03:38:49.059Z,30.90
2023-04-20T03:41:38.448Z,31.00
2023-04-20T03:44:27.388Z,29.80
2023-04-20T03:47:16.983Z,30.80
2023-04-20T03:50:09.435Z,21.60
2023-04-20T03:54:46.652Z,31.30
2023-04-20T03:56:47.101Z,21.20
2023-04-20T03:59:53.157Z,22.90
2023-04-20T04:03:17.421Z,21.10
2023-04-20T04:06:50.488Z,19.40
2023-04-20T04:10:39.650Z,26.20
2023-04-20T04:14:11.917Z,20.80
2023-04-20T04:17:57.204Z,20.40
2023-04-20T04:21:12.888Z,25.10
2023-04-20T04:24:04.578Z,26.70
2023-04-20T04:27:37.859Z,21.20
2023-04-20T04:35:02.496Z,23.70
2023-04-20T04:46:19.422Z,27.00
2023-04-20T05:01:11.730Z,32.40
2023-04-20T05:04:43.042Z,26.60
2023-04-20T05:07:46.160Z,28.80
2023-04-20T05:11:02.898Z,28.90
2023-04-20T05:13:54.209Z,29.10
2023-04-20T05:16:56.502Z,27.60
2023-04-20T05:19:52.289Z,27.50
2023-04-20T05:22:41.187Z,28.70
2023-04-20T05:25:27.415Z,29.40
2023-04-20T05:28:14.728Z,28.90
2023-04-20T05:31:03.034Z,25.10
2023-04-20T05:33:51.047Z,25.90
2023-04-20T05:36:38.496Z,28.70
2023-04-20T05:39:25.052Z,26.20
2023-04-20T05:42:13.043Z,27.20
2023-04-20T05:45:00.167Z,26.90
2023-04-20T05:47:57.079Z,28.70
2023-04-20T05:50:44.062Z,27.60
2023-04-20T05:53:31.877Z,33.70
2023-04-20T05:56:30.480Z,30.90
2023-04-20T05:59:22.985Z,30.70
2023-04-20T06:02:28.141Z,33.10
2023-04-20T06:05:15.090Z,21.40
2023-04-20T06:08:07.951Z,31.70
2023-04-20T06:10:56.952Z,24.40
2023-04-20T06:14:02.596Z,31.60
2023-04-20T06:17:09.714Z,34.20
2023-04-20T06:19:58.329Z,31.90
2023-04-20T06:22:51.503Z,23.40
2023-04-20T06:25:53.552Z,19.40
2023-04-20T06:28:42.256Z,33.40
2023-04-20T06:31:30.606Z,31.20
2023-04-20T06:34:25.145Z,31.20
2023-04-20T06:37:14.372Z,30.20
2023-04-20T06:40:01.581Z,23.30
2023-04-20T06:42:56.502Z,29.40
2023-04-20T06:45:51.945Z,31.80
2023-04-20T06:48:39.869Z,29.30
2023-04-20T06:51:35.231Z,31.10
2023-04-20T06:54:29.974Z,29.60
2023-04-20T06:57:18.153Z,30.00
2023-04-20T07:00:08.480Z,28.20
2023-04-20T07:02:54.543Z,26.60
2023-04-20T07:05:40.536Z,30.80
2023-04-20T07:08:26.632Z,31.50
2023-04-20T07:11:12.760Z,23.90
2023-04-20T07:13:58.622Z,25.20
2023-04-20T07:16:44.512Z,25.90
2023-04-20T07:19:30.830Z,22.80
2023-04-20T07:22:17.688Z,22.90
2023-04-20T07:25:04.886Z,27.40
2023-04-20T07:27:51.970Z,27.30
2023-04-20T07:30:37.863Z,24.00
2023-04-20T07:33:23.831Z,25.70
2023-04-20T07:36:10.540Z,27.70
2023-04-20T07:38:56.244Z,23.70
2023-04-20T07:41:42.076Z,23.70
2023-04-20T07:44:27.925Z,23.20
2023-04-20T07:47:14.732Z,25.20
2023-04-20T07:50:00.333Z,23.70
2023-04-20T07:52:46.660Z,23.00
2023-04-20T07:55:32.353Z,19.30
2023-04-20T07:58:18.408Z,20.40
2023-04-20T08:01:04.520Z,20.00
2023-04-20T08:03:50.825Z,20.60
2023-04-20T08:06:36.741Z,18.50
2023-04-20T08:09:23.811Z,22.10
2023-04-20T08:12:09.628Z,21.30
2023-04-20T08:15:00.222Z,18.20
2023-04-20T08:17:46.561Z,22.80
2023-04-20T08:23:27.268Z,20.10
2023-04-20T08:26:17.116Z,19.10
2023-04-20T08:29:03.281Z,18.00
2023-04-20T08:31:51.594Z,18.00
2023-04-20T08:34:38.762Z,18.60
2023-04-20T08:37:25.548Z,17.70
2023-04-20T08:40:11.369Z,17.20
2023-04-20T08:42:59.810Z,15.90
2023-04-20T08:45:49.135Z,15.80
2023-04-20T08:48:36.894Z,17.50
2023-04-20T08:51:23.705Z,16.10
2023-04-20T08:54:11.456Z,15.80
2023-04-20T08:56:58.166Z,14.80
2023-04-20T08:59:44.024Z,15.70
2023-04-20T09:02:33.462Z,15.50
2023-04-20T09:05:28.959Z,15.40
2023-04-20T09:08:14.741Z,14.80
2023-04-20T09:11:00.646Z,17.20
2023-04-20T09:13:57.125Z,16.20
2023-04-20T09:16:53.090Z,13.00
2023-04-20T09:19:39.828Z,12.50
2023-04-20T09:22:33.549Z,11.40
2023-04-20T09:25:21.220Z,11.30
2023-04-20T09:28:08.607Z,10.30
2023-04-20T09:30:54.290Z,10.80
2023-04-20T09:33:40.531Z,10.10
2023-04-20T09:36:39.403Z,10.70
2023-04-20T09:39:26.545Z,9.80
2023-04-20T09:42:13.722Z,9.50
2023-04-20T09:45:00.394Z,8.80
2023-04-20T09:47:46.955Z,9.90
2023-04-20T09:50:48.131Z,9.50
2023-04-20T09:53:36.121Z,8.70
2023-04-20T09:56:25.537Z,7.50
2023-04-20T09:59:11.514Z,7.90
2023-04-20T10:01:57.825Z,7.90
2023-04-20T10:04:56.655Z,7.80
2023-04-20T10:07:43.741Z,8.10
2023-04-20T10:10:29.700Z,7.90
2023-04-20T10:13:18.664Z,8.20
2023-04-20T10:16:04.272Z,7.40
2023-04-20T10:18:57.369Z,6.60
2023-04-20T10:21:46.950Z,5.20
2023-04-20T10:24:33.518Z,7.90
2023-04-20T10:27:20.510Z,6.00
2023-04-20T10:30:10.267Z,7.30
2023-04-20T10:33:03.280Z,6.00
2023-04-20T10:35:51.325Z,6.30
2023-04-20T10:38:37.189Z,7.30
2023-04-20T10:41:23.874Z,6.40
2023-04-20T10:44:09.977Z,6.70
2023-04-20T10:46:56.359Z,7.70
2023-04-20T10:49:43.560Z,7.50
2023-04-20T10:52:34.305Z,7.80
2023-04-20T10:55:22.009Z,8.40
2023-04-20T10:58:07.924Z,7.30
2023-04-20T11:01:04.075Z,9.30
2023-04-20T11:03:53.263Z,9.10
2023-04-20T11:06:40.064Z,8.70
2023-04-20T11:09:27.979Z,8.30
2023-04-20T11:12:14.350Z,8.40
2023-04-20T11:15:02.312Z,7.80
2023-04-20T11:17:49.287Z,6.80
2023-04-20T11:20:51.973Z,7.90
2023-04-20T11:23:38.128Z,8.40
2023-04-20T11:26:37.016Z,8.90
2023-04-20T11:29:41.096Z,6.60
2023-04-20T11:32:31.392Z,7.40
2023-04-20T11:35:18.136Z,8.10
2023-04-20T11:38:04.006Z,8.30
2023-04-20T11:40:50.272Z,7.00
2023-04-20T11:43:36.295Z,7.00
2023-04-20T11:46:22.155Z,7.00
2023-04-20T11:49:08.259Z,6.60
2023-04-20T11:51:54.136Z,6.40
2023-04-20T11:54:39.896Z,6.50
2023-04-20T11:57:26.439Z,5.60
2023-04-20T12:00:13.324Z,4.70
2023-04-20T12:03:02.497Z,7.50
2023-04-20T12:05:48.773Z,7.30
2023-04-20T12:08:36.644Z,6.40
2023-04-20T12:11:23.240Z,6.50
2023-04-20T12:14:12.453Z,5.60
2023-04-20T12:16:58.746Z,5.00
2023-04-20T12:19:45.844Z,4.70
2023-04-20T12:22:32.419Z,4.70
2023-04-20T12:25:18.136Z,5.80
2023-04-20T12:28:06.928Z,5.30
2023-04-20T12:30:52.842Z,4.60
2023-04-20T12:33:39.358Z,4.70
2023-04-20T12:36:25.948Z,6.10
2023-04-20T12:39:12.059Z,4.70
2023-04-20T12:41:57.978Z,4.00
2023-04-20T12:44:44.597Z,4.70
2023-04-20T12:47:30.885Z,3.50
2023-04-20T12:50:17.429Z,3.70
2023-04-20T12:53:03.335Z,4.50
2023-04-20T12:56:00.424Z,4.30
2023-04-20T12:58:46.767Z,3.80
2023-04-20T13:01:34.634Z,4.00
2023-04-20T13:04:21.674Z,4.50
2023-04-20T13:07:08.541Z,3.70
2023-04-20T13:09:55.106Z,3.70
2023-04-20T13:12:45.861Z,4.20
2023-04-20T13:15:38.943Z,4.50
2023-04-20T13:18:25.891Z,3.90
2023-04-20T13:21:11.561Z,4.30
2023-04-20T13:23:57.492Z,4.70
2023-04-20T13:26:43.228Z,3.40
2023-04-20T13:29:29.891Z,3.90
2023-04-20T13:32:16.573Z,4.40
2023-04-20T13:35:03.225Z,4.50
2023-04-20T13:37:49.944Z,3.00
2023-04-20T13:40:35.776Z,3.30
2023-04-20T13:43:22.169Z,2.90
2023-04-20T13:46:08.917Z,4.10
2023-04-20T13:48:55.254Z,7.00
2023-04-20T13:51:41.461Z,6.90
2023-04-20T13:54:27.808Z,7.10
2023-04-20T13:57:14.065Z,5.40
2023-04-20T14:00:00.640Z,6.30
2023-04-20T14:02:47.441Z,6.00
2023-04-20T14:05:34.036Z,4.30
2023-04-20T14:08:20.356Z,3.90
2023-04-20T14:11:08.274Z,3.80
2023-04-20T14:13:54.259Z,3.40
2023-04-20T14:16:44.403Z,3.70
2023-04-20T14:19:30.791Z,2.90
2023-04-20T14:22:16.856Z,4.30
2023-04-20T14:25:06.546Z,4.30
2023-04-20T14:27:53.816Z,3.30
2023-04-20T14:30:39.920Z,2.90
2023-04-20T14:33:26.558Z,3.30
2023-04-20T14:36:12.670Z,2.30
2023-04-20T14:38:58.703Z,3.50
2023-04-20T14:41:44.420Z,3.00
2023-04-20T14:44:30.824Z,2.10
2023-04-20T14:47:17.042Z,2.80
2023-04-20T14:50:03.384Z,3.00
2023-04-20T14:52:49.794Z,2.30
2023-04-20T14:55:35.872Z,3.30
2023-04-20T14:58:22.014Z,2.70
2023-04-20T15:01:07.820Z,2.30
2023-04-20T15:03:53.991Z,2.90
2023-04-20T15:06:40.179Z,2.60
2023-04-20T15:09:26.116Z,3.50
2023-04-20T15:12:51.869Z,4.30
2023-04-20T15:16:53.298Z,3.80
2023-04-20T15:20:46.781Z,4.00
2023-04-20T15:24:44.836Z,2.50
2023-04-20T15:28:39.806Z,3.40
2023-04-20T15:32:34.999Z,3.40
2023-04-20T15:36:25.697Z,5.40
2023-04-20T15:40:18.154Z,2.70
2023-04-20T15:44:17.138Z,3.30
2023-04-20T15:48:17.837Z,2.40
2023-04-20T15:56:09.918Z,3.30
2023-04-20T16:00:12.117Z,3.40
2023-04-20T16:04:09.094Z,4.70
2023-04-20T16:08:06.440Z,3.30
2023-04-20T16:16:16.058Z,3.80
2023-04-20T16:20:09.884Z,4.50
2023-04-20T16:27:13.099Z,3.90
2023-04-20T16:31:03.727Z,3.20
2023-04-20T16:35:12.003Z,4.10
2023-04-20T16:44:01.199Z,4.30
2023-04-20T16:52:59.483Z,4.20
2023-04-20T17:12:41.785Z,4.30
2023-04-20T17:35:26.169Z,9.80
2023-04-20T18:14:46.626Z,116.10
2023-04-20T18:50:39.261Z,75.30
2023-04-20T21:24:12.158Z,14.70
2023-04-20T21:34:15.719Z,15.70
2023-04-20T21:48:46.780Z,17.00
2023-04-20T22:13:02.141Z,12.10
2023-04-20T22:22:27.205Z,17.00
2023-04-20T22:26:23.356Z,12.90
2023-04-20T22:30:19.205Z,14.10
2023-04-20T22:34:55.183Z,17.30
2023-04-20T22:38:53.037Z,12.50
2023-04-20T22:42:54.185Z,12.00
2023-04-20T22:46:54.988Z,12.60
2023-04-20T22:50:48.154Z,12.20
2023-04-20T22:54:52.995Z,11.70
2023-04-20T22:58:49.362Z,12.90
2023-04-20T23:02:50.372Z,11.40
2023-04-20T23:14:23.089Z,11.40
2023-04-20T23:18:26.421Z,13.70
2023-04-20T23:22:22.142Z,9.50
2023-04-20T23:26:22.014Z,13.90
2023-04-20T23:38:08.976Z,12.70
2023-04-20T23:42:22.102Z,12.00
